Terminal Aerodrome Forecast
Issued by NWS Sterling, VA

Current Version | Previous Version | Graphics & Text | Print | Product List | Glossary On
Versions: 1 2 3 4 5 6 7 8 9 10 11 12 13 14 15 16 17
000
FTUS41 KLWX 261124
TAFMRB
TAF
KMRB 261124Z 2612/2712 31003KT 3SM BR BKN008 OVC015
     FM261500 34004KT P6SM BKN015
     FM261800 VRB03KT P6SM SCT035
     FM262000 VRB03KT P6SM SCT250
     FM270600 VRB03KT 5SM BR SCT050=

USA.gov is the U.S. government's official web portal to all federal, state and local government web resources and services.